Time,TemperatureF,DewpointF,PressureIn,WindDirection,WindDirectionDegrees,WindSpeedMPH,WindSpeedGustMPH,Humidity,HourlyPrecipIn,Conditions,Clouds,dailyrainin,SoftwareType,DateUTC
2013-02-27 00:02:00,30.4,24.0,29.89,NE,44,1.0,-999.0,78,-99.99,,,0.00,weatherlink.com 1.10,2013-02-27 06:02:00,
2013-02-27 00:17:00,30.1,24.0,29.89,NE,41,0.0,-999.0,78,-99.99,,,0.00,weatherlink.com 1.10,2013-02-27 06:17:00,
2013-02-27 00:32:00,29.7,24.0,29.88,NE,45,0.0,-999.0,79,-99.99,,,0.00,weatherlink.com 1.10,2013-02-27 06:32:00,
2013-02-27 00:47:00,29.3,24.0,29.88,North,5,2.0,-999.0,80,-99.99,,,0.00,weatherlink.com 1.10,2013-02-27 06:47:00,
2013-02-27 01:02:00,28.9,24.0,29.89,NNE,26,1.0,-999.0,81,-99.99,,,0.00,weatherlink.com 1.10,2013-02-27 07:02:00,
2013-02-27 01:17:00,28.9,24.0,29.89,North,5,0.0,-999.0,82,-99.99,,,0.00,weatherlink.com 1.10,2013-02-27 07:17:00,
2013-02-27 01:32:00,28.9,24.0,29.89,ENE,66,0.0,-999.0,83,-99.99,,,0.00,weatherlink.com 1.10,2013-02-27 07:32:00,
2013-02-27 01:47:00,28.8,24.0,29.89,NNW,341,0.0,-999.0,83,-99.99,,,0.00,weatherlink.com 1.10,2013-02-27 07:47:00,
2013-02-27 02:02:00,28.9,25.0,29.89,NE,35,2.0,-999.0,84,-99.99,,,0.00,weatherlink.com 1.10,2013-02-27 08:02:00,
2013-02-27 02:17:00,29.0,25.0,29.89,North,11,0.0,-999.0,84,-99.99,,,0.00,weatherlink.com 1.10,2013-02-27 08:17:00,
2013-02-27 02:32:00,29.2,25.0,29.89,NNE,15,0.0,-999.0,85,-99.99,,,0.00,weatherlink.com 1.10,2013-02-27 08:32:00,
2013-02-27 02:47:00,29.5,26.0,29.89,NNE,17,0.0,-999.0,85,-99.99,,,0.00,weatherlink.com 1.10,2013-02-27 08:47:00,
2013-02-27 03:02:00,29.6,26.0,29.89,NE,42,0.0,-999.0,85,-99.99,,,0.00,weatherlink.com 1.10,2013-02-27 09:02:00,
2013-02-27 03:17:00,29.7,26.0,29.89,ENE,58,4.0,-999.0,86,-99.99,,,0.00,weatherlink.com 1.10,2013-02-27 09:17:00,
2013-02-27 03:32:00,29.7,26.0,29.88,NE,51,2.0,-999.0,86,-99.99,,,0.00,weatherlink.com 1.10,2013-02-27 09:32:00,
2013-02-27 03:47:00,29.6,26.0,29.89,North,355,0.0,-999.0,86,-99.99,,,0.00,weatherlink.com 1.10,2013-02-27 09:47:00,
2013-02-27 04:02:00,29.6,26.0,29.88,NW,309,0.0,-999.0,86,-99.99,,,0.00,weatherlink.com 1.10,2013-02-27 10:02:00,
2013-02-27 04:17:00,29.6,26.0,29.88,NNW,333,0.0,-999.0,86,-99.99,,,0.00,weatherlink.com 1.10,2013-02-27 10:17:00,
2013-02-27 04:32:00,29.5,26.0,29.88,NE,56,2.0,-999.0,86,-99.99,,,0.00,weatherlink.com 1.10,2013-02-27 10:32:00,
2013-02-27 04:47:00,29.5,26.0,29.88,NNE,28,1.0,-999.0,86,-99.99,,,0.00,weatherlink.com 1.10,2013-02-27 10:47:00,
2013-02-27 05:02:00,29.4,26.0,29.88,NE,49,0.0,-999.0,86,-99.99,,,0.00,weatherlink.com 1.10,2013-02-27 11:02:00,
2013-02-27 05:17:00,29.3,26.0,29.88,NNE,15,0.0,-999.0,86,-99.99,,,0.00,weatherlink.com 1.10,2013-02-27 11:17:00,
2013-02-27 05:32:00,29.2,26.0,29.89,North,349,0.0,-999.0,86,-99.99,,,0.00,weatherlink.com 1.10,2013-02-27 11:32:00,
2013-02-27 05:47:00,28.9,25.0,29.89,NNW,346,1.0,-999.0,86,-99.99,,,0.00,weatherlink.com 1.10,2013-02-27 11:47:00,
2013-02-27 06:02:00,28.6,25.0,29.89,NNW,333,1.0,-999.0,86,-99.99,,,0.00,weatherlink.com 1.10,2013-02-27 12:02:00,
2013-02-27 06:17:00,28.4,25.0,29.89,SSW,213,0.0,-999.0,86,-99.99,,,0.00,weatherlink.com 1.10,2013-02-27 12:17:00,
2013-02-27 06:32:00,28.3,25.0,29.89,SSE,150,0.0,-999.0,87,-99.99,,,0.00,weatherlink.com 1.10,2013-02-27 12:32:00,
2013-02-27 06:47:00,28.2,25.0,29.89,ESE,113,0.0,-999.0,87,-99.99,,,0.00,weatherlink.com 1.10,2013-02-27 12:47:00,
2013-02-27 07:03:00,28.0,25.0,29.90,NNE,26,1.0,-999.0,87,-99.99,,,0.00,weatherlink.com 1.10,2013-02-27 13:03:00,
2013-02-27 07:17:00,27.9,25.0,29.91,North,360,0.0,-999.0,87,-99.99,,,0.00,weatherlink.com 1.10,2013-02-27 13:17:00,
2013-02-27 07:33:00,27.5,24.0,29.91,NNW,342,0.0,-999.0,87,-99.99,,,0.00,weatherlink.com 1.10,2013-02-27 13:33:00,
2013-02-27 07:48:00,27.4,24.0,29.92,East,84,1.0,-999.0,87,-99.99,,,0.00,weatherlink.com 1.10,2013-02-27 13:48:00,
2013-02-27 08:03:00,27.6,25.0,29.93,West,265,1.0,-999.0,88,-99.99,,,0.00,weatherlink.com 1.10,2013-02-27 14:03:00,
2013-02-27 08:18:00,28.0,25.0,29.93,NW,320,0.0,-999.0,88,-99.99,,,0.00,weatherlink.com 1.10,2013-02-27 14:18:00,
2013-02-27 08:33:00,28.5,25.0,29.92,NNW,329,0.0,-999.0,87,-99.99,,,0.00,weatherlink.com 1.10,2013-02-27 14:33:00,
2013-02-27 08:48:00,29.3,26.0,29.92,NNW,336,2.0,-999.0,87,-99.99,,,0.00,weatherlink.com 1.10,2013-02-27 14:48:00,
2013-02-27 09:03:00,29.8,26.0,29.92,ESE,104,2.0,-999.0,85,-99.99,,,0.00,weatherlink.com 1.10,2013-02-27 15:03:00,
2013-02-27 09:18:00,32.0,27.0,29.92,North,9,0.0,-999.0,82,-99.99,,,0.00,weatherlink.com 1.10,2013-02-27 15:18:00,
2013-02-27 09:33:00,34.4,28.0,29.92,NE,46,1.0,-999.0,78,-99.99,,,0.00,weatherlink.com 1.10,2013-02-27 15:33:00,
2013-02-27 09:48:00,35.8,29.0,29.91,NNE,16,0.0,-999.0,75,-99.99,,,0.00,weatherlink.com 1.10,2013-02-27 15:48:00,
2013-02-27 10:03:00,36.7,28.0,29.91,NNE,30,0.0,-999.0,71,-99.99,,,0.00,weatherlink.com 1.10,2013-02-27 16:03:00,
2013-02-27 10:18:00,37.4,28.0,29.90,NNW,348,0.0,-999.0,68,-99.99,,,0.00,weatherlink.com 1.10,2013-02-27 16:18:00,
2013-02-27 10:33:00,36.7,27.0,29.90,North,350,4.0,-999.0,69,-99.99,,,0.00,weatherlink.com 1.10,2013-02-27 16:33:00,
2013-02-27 10:48:00,37.5,29.0,29.90,West,279,3.0,-999.0,70,-99.99,,,0.00,weatherlink.com 1.10,2013-02-27 16:48:00,
2013-02-27 11:03:00,38.6,28.0,29.89,WSW,239,3.0,-999.0,66,-99.99,,,0.00,weatherlink.com 1.10,2013-02-27 17:03:00,
2013-02-27 11:18:00,39.3,28.0,29.89,NE,53,2.0,-999.0,64,-99.99,,,0.00,weatherlink.com 1.10,2013-02-27 17:18:00,
2013-02-27 11:33:00,39.0,28.0,29.89,NNW,348,1.0,-999.0,64,-99.99,,,0.00,weatherlink.com 1.10,2013-02-27 17:33:00,
2013-02-27 11:48:00,39.6,28.0,29.89,NNE,14,0.0,-999.0,64,-99.99,,,0.00,weatherlink.com 1.10,2013-02-27 17:48:00,
2013-02-27 12:03:00,39.6,27.0,29.88,North,355,5.0,-999.0,61,-99.99,,,0.00,weatherlink.com 1.10,2013-02-27 18:03:00,
2013-02-27 12:18:00,38.8,27.0,29.88,NNE,17,2.0,-999.0,62,-99.99,,,0.00,weatherlink.com 1.10,2013-02-27 18:18:00,
2013-02-27 12:33:00,39.8,28.0,29.87,North,360,0.0,-999.0,62,-99.99,,,0.00,weatherlink.com 1.10,2013-02-27 18:33:00,
2013-02-27 12:48:00,41.9,28.0,29.87,ENE,61,0.0,-999.0,59,-99.99,,,0.00,weatherlink.com 1.10,2013-02-27 18:48:00,
2013-02-27 13:03:00,41.4,27.0,29.88,North,350,0.0,-999.0,58,-99.99,,,0.00,weatherlink.com 1.10,2013-02-27 19:03:00,
2013-02-27 13:18:00,41.1,28.0,29.88,NNE,27,0.0,-999.0,59,-99.99,,,0.00,weatherlink.com 1.10,2013-02-27 19:18:00,
2013-02-27 13:33:00,41.8,27.0,29.88,North,360,1.0,-999.0,56,-99.99,,,0.00,weatherlink.com 1.10,2013-02-27 19:33:00,
2013-02-27 13:48:00,42.0,28.0,29.87,NW,322,0.0,-999.0,57,-99.99,,,0.00,weatherlink.com 1.10,2013-02-27 19:48:00,
2013-02-27 14:03:00,42.6,27.0,29.88,NW,318,2.0,-999.0,54,-99.99,,,0.00,weatherlink.com 1.10,2013-02-27 20:03:00,
2013-02-27 14:18:00,42.3,27.0,29.87,North,360,0.0,-999.0,54,-99.99,,,0.00,weatherlink.com 1.10,2013-02-27 20:18:00,
2013-02-27 14:33:00,42.1,27.0,29.88,NNW,342,1.0,-999.0,55,-99.99,,,0.00,weatherlink.com 1.10,2013-02-27 20:33:00,
2013-02-27 14:48:00,42.6,28.0,29.88,ENE,68,0.0,-999.0,56,-99.99,,,0.00,weatherlink.com 1.10,2013-02-27 20:48:00,
2013-02-27 15:03:00,44.8,28.0,29.88,ENE,60,2.0,-999.0,53,-99.99,,,0.00,weatherlink.com 1.10,2013-02-27 21:03:00,
2013-02-27 15:18:00,45.2,28.0,29.88,ENE,57,3.0,-999.0,52,-99.99,,,0.00,weatherlink.com 1.10,2013-02-27 21:18:00,
2013-02-27 15:33:00,44.4,29.0,29.89,ENE,76,3.0,-999.0,54,-99.99,,,0.00,weatherlink.com 1.10,2013-02-27 21:33:00,
2013-02-27 15:48:00,42.5,28.0,29.89,ESE,102,0.0,-999.0,57,-99.99,,,0.00,weatherlink.com 1.10,2013-02-27 21:48:00,
2013-02-27 16:03:00,40.4,28.0,29.90,ENE,61,6.0,-999.0,61,-99.99,,,0.00,weatherlink.com 1.10,2013-02-27 22:03:00,
2013-02-27 16:18:00,39.8,28.0,29.91,NE,55,2.0,-999.0,63,-99.99,,,0.00,weatherlink.com 1.10,2013-02-27 22:18:00,
2013-02-27 16:33:00,38.8,28.0,29.91,ENE,69,1.0,-999.0,65,-99.99,,,0.00,weatherlink.com 1.10,2013-02-27 22:33:00,
2013-02-27 16:48:00,38.0,28.0,29.92,ENE,59,0.0,-999.0,67,-99.99,,,0.00,weatherlink.com 1.10,2013-02-27 22:48:00,
2013-02-27 17:03:00,37.4,28.0,29.92,ENE,76,2.0,-999.0,68,-99.99,,,0.00,weatherlink.com 1.10,2013-02-27 23:03:00,
2013-02-27 17:18:00,36.5,27.0,29.93,ENE,59,2.0,-999.0,69,-99.99,,,0.00,weatherlink.com 1.10,2013-02-27 23:18:00,
2013-02-27 17:33:00,35.4,27.0,29.93,ENE,57,0.0,-999.0,71,-99.99,,,0.00,weatherlink.com 1.10,2013-02-27 23:33:00,
2013-02-27 17:48:00,34.4,27.0,29.94,ENE,74,1.0,-999.0,73,-99.99,,,0.00,weatherlink.com 1.10,2013-02-27 23:48:00,
2013-02-27 18:04:00,33.5,26.0,29.95,East,84,1.0,-999.0,75,-99.99,,,0.00,weatherlink.com 1.10,2013-02-28 00:04:00,
2013-02-27 18:19:00,32.8,26.0,29.96,East,84,0.0,-999.0,76,-99.99,,,0.00,weatherlink.com 1.10,2013-02-28 00:19:00,
2013-02-27 18:34:00,32.3,26.0,29.98,ENE,59,2.0,-999.0,77,-99.99,,,0.00,weatherlink.com 1.10,2013-02-28 00:34:00,
2013-02-27 18:49:00,32.0,26.0,29.98,ENE,58,0.0,-999.0,79,-99.99,,,0.00,weatherlink.com 1.10,2013-02-28 00:49:00,
2013-02-27 19:04:00,31.6,26.0,29.99,ENE,58,0.0,-999.0,79,-99.99,,,0.00,weatherlink.com 1.10,2013-02-28 01:04:00,
2013-02-27 19:19:00,31.0,25.0,29.99,ENE,58,1.0,-999.0,79,-99.99,,,0.00,weatherlink.com 1.10,2013-02-28 01:19:00,
2013-02-27 19:34:00,30.5,25.0,30.00,ENE,58,0.0,-999.0,80,-99.99,,,0.00,weatherlink.com 1.10,2013-02-28 01:34:00,
2013-02-27 19:49:00,30.0,25.0,30.00,ENE,57,0.0,-999.0,81,-99.99,,,0.00,weatherlink.com 1.10,2013-02-28 01:49:00,
2013-02-27 20:04:00,29.7,25.0,30.00,ENE,58,0.0,-999.0,81,-99.99,,,0.00,weatherlink.com 1.10,2013-02-28 02:04:00,
2013-02-27 20:19:00,29.2,24.0,30.00,ENE,58,0.0,-999.0,82,-99.99,,,0.00,weatherlink.com 1.10,2013-02-28 02:19:00,
2013-02-27 20:34:00,29.0,24.0,30.00,ENE,58,0.0,-999.0,82,-99.99,,,0.00,weatherlink.com 1.10,2013-02-28 02:34:00,
2013-02-27 20:49:00,29.0,24.0,30.00,ENE,58,0.0,-999.0,82,-99.99,,,0.00,weatherlink.com 1.10,2013-02-28 02:49:00,
2013-02-27 21:04:00,28.8,24.0,30.00,ENE,58,0.0,-999.0,82,-99.99,,,0.00,weatherlink.com 1.10,2013-02-28 03:04:00,
2013-02-27 21:19:00,28.4,24.0,30.01,ENE,57,0.0,-999.0,82,-99.99,,,0.00,weatherlink.com 1.10,2013-02-28 03:19:00,
2013-02-27 21:34:00,28.5,24.0,30.01,ENE,59,0.0,-999.0,83,-99.99,,,0.00,weatherlink.com 1.10,2013-02-28 03:34:00,
2013-02-27 21:49:00,28.3,24.0,30.01,ENE,59,0.0,-999.0,83,-99.99,,,0.00,weatherlink.com 1.10,2013-02-28 03:49:00,
2013-02-27 22:05:00,28.1,24.0,30.02,ENE,58,0.0,-999.0,83,-99.99,,,0.00,weatherlink.com 1.10,2013-02-28 04:05:00,
2013-02-27 22:34:00,27.9,23.0,30.02,ENE,57,0.0,-999.0,83,-99.99,,,0.00,weatherlink.com 1.10,2013-02-28 04:34:00,
2013-02-27 22:49:00,28.0,24.0,30.02,ENE,57,0.0,-999.0,83,-99.99,,,0.00,weatherlink.com 1.10,2013-02-28 04:49:00,
2013-02-27 23:04:00,28.4,24.0,30.02,NE,36,0.0,-999.0,83,-99.99,,,0.00,weatherlink.com 1.10,2013-02-28 05:04:00,
2013-02-27 23:19:00,28.8,24.0,30.03,NE,36,0.0,-999.0,82,-99.99,,,0.00,weatherlink.com 1.10,2013-02-28 05:19:00,
2013-02-27 23:34:00,29.1,24.0,30.03,NE,36,0.0,-999.0,82,-99.99,,,0.00,weatherlink.com 1.10,2013-02-28 05:34:00,
2013-02-27 23:49:00,29.3,24.0,30.02,NE,36,0.0,-999.0,81,-99.99,,,0.00,weatherlink.com 1.10,2013-02-28 05:49:00,